createdAt,value
2023-01-12T00:03:06.555Z,4.79
2023-01-12T00:08:08.264Z,4.81
2023-01-12T00:13:16.994Z,4.80
2023-01-12T00:18:20.042Z,4.79
2023-01-12T00:23:22.059Z,4.78
2023-01-12T00:28:23.646Z,4.80
2023-01-12T00:33:25.280Z,4.80
2023-01-12T00:38:27.203Z,4.82
2023-01-12T00:43:47.398Z,4.86
2023-01-12T00:48:49.199Z,4.85
2023-01-12T00:53:50.835Z,4.85
2023-01-12T00:58:52.468Z,4.91
2023-01-12T01:03:54.666Z,4.94
2023-01-12T01:08:56.463Z,4.92
2023-01-12T01:13:59.150Z,4.92
2023-01-12T01:19:03.105Z,4.92
2023-01-12T01:24:09.127Z,4.95
2023-01-12T01:29:11.305Z,4.95
2023-01-12T01:34:13.437Z,4.95
2023-01-12T01:39:15.148Z,4.96
2023-01-12T01:44:31.923Z,4.98
2023-01-12T01:49:52.640Z,5.01
2023-01-12T01:54:59.281Z,5.01
2023-01-12T02:00:03.249Z,5.04
2023-01-12T02:05:07.554Z,5.04
2023-01-12T02:10:10.106Z,5.04
2023-01-12T02:15:30.695Z,5.07
2023-01-12T02:20:55.828Z,5.10
2023-01-12T02:26:27.037Z,5.11
2023-01-12T02:31:50.069Z,5.15
2023-01-12T02:37:10.538Z,5.18
2023-01-12T02:42:41.973Z,5.24
2023-01-12T02:47:49.013Z,5.29
2023-01-12T02:52:56.570Z,5.28
2023-01-12T02:58:00.076Z,5.27
2023-01-12T03:03:02.027Z,5.26
2023-01-12T03:08:05.366Z,5.26
2023-01-12T03:13:15.806Z,5.26
2023-01-12T03:18:39.378Z,5.25
2023-01-12T03:23:49.395Z,5.25
2023-01-12T03:28:56.433Z,5.22
2023-01-12T03:33:58.656Z,5.19
2023-01-12T03:39:11.813Z,5.13
2023-01-12T03:44:24.092Z,5.09
2023-01-12T03:49:33.117Z,5.04
2023-01-12T03:54:37.586Z,4.98
2023-01-12T03:59:40.948Z,4.89
2023-01-12T04:04:42.626Z,4.80
2023-01-12T04:09:44.364Z,4.71
2023-01-12T04:14:48.155Z,4.64
2023-01-12T04:19:50.026Z,4.59
2023-01-12T04:24:51.845Z,4.56
2023-01-12T04:29:53.752Z,4.54
2023-01-12T04:34:55.429Z,4.55
2023-01-12T04:39:57.074Z,4.53
2023-01-12T04:44:58.859Z,4.53
2023-01-12T04:50:00.605Z,4.56
2023-01-12T04:55:03.132Z,4.56
2023-01-12T05:00:06.107Z,4.59
2023-01-12T05:05:09.047Z,4.58
2023-01-12T05:10:23.628Z,4.59
2023-01-12T05:15:25.427Z,4.59
2023-01-12T05:20:27.094Z,4.59
2023-01-12T05:25:29.485Z,4.57
2023-01-12T05:30:32.059Z,4.53
2023-01-12T05:35:33.951Z,4.49
2023-01-12T05:40:35.818Z,4.51
2023-01-12T05:45:37.558Z,4.52
2023-01-12T05:50:39.962Z,4.53
2023-01-12T05:55:44.356Z,4.54
2023-01-12T06:00:46.705Z,4.51
2023-01-12T06:05:55.828Z,4.48
2023-01-12T06:11:03.695Z,4.45
2023-01-12T06:16:09.139Z,4.43
2023-01-12T06:21:11.008Z,4.40
2023-01-12T06:26:12.989Z,4.43
2023-01-12T06:31:15.674Z,4.40
2023-01-12T06:36:17.456Z,4.36
2023-01-12T06:41:37.979Z,4.31
2023-01-12T06:46:39.874Z,4.23
2023-01-12T06:51:41.703Z,4.18
2023-01-12T06:56:43.339Z,4.14
2023-01-12T07:01:45.064Z,4.14
2023-01-12T07:06:48.287Z,4.16
2023-01-12T07:11:49.858Z,4.15
2023-01-12T07:16:51.761Z,4.18
2023-01-12T07:21:53.430Z,4.20
2023-01-12T07:26:58.089Z,4.22
2023-01-12T07:31:59.780Z,4.24
2023-01-12T07:37:01.423Z,4.29
2023-01-12T07:42:21.897Z,4.35
2023-01-12T07:47:23.618Z,4.46
2023-01-12T07:52:25.448Z,4.62
2023-01-12T07:57:27.133Z,4.93
2023-01-12T08:02:28.956Z,5.77
2023-01-12T08:07:32.598Z,6.72
2023-01-12T08:12:35.849Z,7.10
2023-01-12T08:17:44.936Z,7.47
2023-01-12T08:22:51.654Z,8.34
2023-01-12T08:28:00.240Z,8.87
2023-01-12T08:33:02.749Z,8.42
2023-01-12T08:38:04.503Z,7.81
2023-01-12T08:43:06.225Z,7.33
2023-01-12T08:48:07.889Z,7.00
2023-01-12T08:53:10.540Z,6.87
2023-01-12T08:58:12.421Z,6.94
2023-01-12T09:03:14.491Z,7.50
2023-01-12T09:08:16.508Z,8.04
2023-01-12T09:13:18.148Z,8.40
2023-01-12T09:18:20.421Z,8.23
2023-01-12T09:23:22.267Z,7.96
2023-01-12T09:28:24.071Z,7.79
2023-01-12T09:33:26.020Z,7.69
2023-01-12T09:38:27.906Z,7.65
2023-01-12T09:43:48.176Z,7.60
2023-01-12T09:48:49.978Z,7.60
2023-01-12T09:53:51.809Z,7.63
2023-01-12T09:58:59.534Z,7.68
2023-01-12T10:04:02.283Z,7.75
2023-01-12T10:09:05.972Z,7.81
2023-01-12T10:14:28.198Z,7.87
2023-01-12T10:20:03.013Z,7.95
2023-01-12T10:25:27.058Z,8.08
2023-01-12T10:30:28.856Z,8.14
2023-01-12T10:35:30.561Z,8.18
2023-01-12T10:40:34.957Z,8.22
2023-01-12T10:45:36.847Z,8.25
2023-01-12T10:50:38.667Z,8.25
2023-01-12T10:55:43.067Z,8.25
2023-01-12T11:00:52.229Z,8.26
2023-01-12T11:05:53.971Z,8.30
2023-01-12T11:10:55.683Z,8.31
2023-01-12T11:16:09.526Z,8.36
2023-01-12T11:21:15.825Z,8.41
2023-01-12T11:26:22.672Z,8.46
2023-01-12T11:31:42.386Z,8.48
2023-01-12T11:36:50.964Z,8.48
2023-01-12T11:42:17.632Z,8.48
2023-01-12T11:47:31.515Z,8.51
2023-01-12T11:52:34.535Z,8.53
2023-01-12T11:58:00.640Z,8.52
2023-01-12T12:03:12.238Z,8.49
2023-01-12T12:08:42.013Z,8.48
2023-01-12T12:14:31.198Z,8.48
2023-01-12T12:19:50.198Z,8.48
2023-01-12T12:25:50.666Z,8.50
2023-01-12T12:31:24.081Z,8.52
2023-01-12T12:36:34.869Z,8.55
2023-01-12T12:42:11.820Z,8.58
2023-01-12T12:47:41.024Z,8.58
2023-01-12T12:52:47.847Z,8.56
2023-01-12T12:58:01.391Z,8.53
2023-01-12T13:03:03.129Z,8.47
2023-01-12T13:08:05.261Z,8.40
2023-01-12T13:13:24.896Z,8.37
2023-01-12T13:18:42.151Z,8.39
2023-01-12T13:23:51.374Z,8.36
2023-01-12T13:29:29.055Z,8.32
2023-01-12T13:34:36.655Z,8.30
2023-01-12T13:39:45.953Z,8.26
2023-01-12T13:44:48.833Z,8.20
2023-01-12T13:49:53.220Z,8.10
2023-01-12T13:54:55.557Z,7.95
2023-01-12T14:00:09.300Z,7.83
2023-01-12T14:05:29.531Z,7.72
2023-01-12T14:10:49.621Z,7.58
2023-01-12T14:16:19.555Z,7.47
2023-01-12T14:21:33.343Z,7.35
2023-01-12T14:26:35.456Z,7.29
2023-01-12T14:31:40.230Z,7.28
2023-01-12T14:36:44.318Z,7.21
2023-01-12T14:42:11.274Z,7.14
2023-01-12T14:47:24.900Z,7.07
2023-01-12T14:52:33.264Z,6.99
2023-01-12T14:57:36.435Z,6.88
2023-01-12T15:02:41.488Z,6.81
2023-01-12T15:07:55.755Z,6.78
2023-01-12T15:13:12.924Z,6.76
2023-01-12T15:18:34.016Z,6.73
2023-01-12T15:23:55.604Z,6.72
2023-01-12T15:28:57.338Z,6.68
2023-01-12T15:34:00.278Z,6.67
2023-01-12T15:39:01.964Z,6.68
2023-01-12T15:44:03.707Z,6.69
2023-01-12T15:49:05.868Z,6.69
2023-01-12T15:54:11.484Z,6.68
2023-01-12T15:59:13.479Z,6.67
2023-01-12T16:04:41.975Z,6.67
2023-01-12T16:09:47.779Z,6.66
2023-01-12T16:14:50.015Z,6.68
2023-01-12T16:19:51.772Z,6.70
2023-01-12T16:24:55.630Z,6.72
2023-01-12T16:29:57.646Z,6.70
2023-01-12T16:34:59.325Z,6.66
2023-01-12T16:40:01.197Z,6.63
2023-01-12T16:45:03.584Z,6.56
2023-01-12T16:50:06.004Z,6.56
2023-01-12T16:55:07.857Z,6.57
2023-01-12T17:00:10.688Z,6.58
2023-01-12T17:05:12.474Z,6.58
2023-01-12T17:10:17.594Z,6.54
2023-01-12T17:15:19.334Z,6.51
2023-01-12T17:20:21.461Z,6.47
2023-01-12T17:25:23.547Z,6.43
2023-01-12T17:30:25.805Z,6.41
2023-01-12T17:35:27.610Z,6.39
2023-01-12T17:40:29.414Z,6.37
2023-01-12T17:45:31.327Z,6.33
2023-01-12T17:50:33.151Z,6.27
2023-01-12T17:55:47.358Z,6.23
2023-01-12T18:00:49.801Z,6.18
2023-01-12T18:06:02.837Z,6.14
2023-01-12T18:11:08.595Z,6.10
2023-01-12T18:16:12.581Z,6.08
2023-01-12T18:21:18.558Z,6.04
2023-01-12T18:26:25.781Z,6.03
2023-01-12T18:31:31.890Z,6.02
2023-01-12T18:36:36.778Z,5.99
2023-01-12T18:41:57.155Z,5.97
2023-01-12T18:47:19.104Z,5.97
2023-01-12T18:52:40.055Z,6.02
2023-01-12T18:57:41.705Z,6.11
2023-01-12T19:02:44.651Z,6.17
2023-01-12T19:07:58.684Z,6.25
2023-01-12T19:13:18.855Z,6.31
2023-01-12T19:18:20.647Z,6.37
2023-01-12T19:23:41.673Z,6.41
2023-01-12T19:28:43.392Z,6.45
2023-01-12T19:33:45.140Z,6.46
2023-01-12T19:38:50.971Z,6.45
2023-01-12T19:43:52.736Z,6.44
2023-01-12T19:48:54.430Z,6.44
2023-01-12T19:53:56.151Z,6.43
2023-01-12T19:58:58.046Z,6.42
2023-01-12T20:03:59.970Z,6.43
2023-01-12T20:09:03.149Z,6.42
2023-01-12T20:14:05.138Z,6.41
2023-01-12T20:19:07.217Z,6.38
2023-01-12T20:24:09.425Z,6.37
2023-01-12T20:29:11.685Z,6.42
2023-01-12T20:34:13.609Z,6.48
2023-01-12T20:39:16.146Z,6.57
2023-01-12T20:44:20.352Z,6.63
2023-01-12T20:49:22.209Z,6.67
2023-01-12T20:54:23.977Z,6.75
2023-01-12T20:59:25.792Z,6.80
2023-01-12T21:04:27.547Z,6.82
2023-01-12T21:09:29.621Z,6.83
2023-01-12T21:14:32.202Z,6.83
2023-01-12T21:19:34.409Z,6.82
2023-01-12T21:24:36.160Z,6.80
2023-01-12T21:29:37.923Z,6.77
2023-01-12T21:34:39.706Z,6.78
2023-01-12T21:39:41.489Z,6.78
2023-01-12T21:44:43.169Z,6.75
2023-01-12T21:49:44.934Z,6.67
2023-01-12T21:54:46.793Z,6.57
2023-01-12T21:59:48.471Z,6.48
2023-01-12T22:04:50.132Z,6.39
2023-01-12T22:09:52.019Z,6.35
2023-01-12T22:14:57.022Z,6.31
2023-01-12T22:19:59.117Z,6.29
2023-01-12T22:25:00.947Z,6.25
2023-01-12T22:30:05.204Z,6.22
2023-01-12T22:35:07.719Z,6.20
2023-01-12T22:40:11.055Z,6.19
2023-01-12T22:45:14.010Z,6.19
2023-01-12T22:50:15.951Z,6.19
2023-01-12T22:55:17.755Z,6.19
2023-01-12T23:00:21.095Z,6.20
2023-01-12T23:05:22.930Z,6.22
2023-01-12T23:10:25.517Z,6.28
2023-01-12T23:15:27.244Z,6.36
2023-01-12T23:20:29.140Z,6.47
2023-01-12T23:25:32.890Z,6.53
2023-01-12T23:30:34.721Z,6.56
2023-01-12T23:35:40.439Z,6.58
2023-01-12T23:40:42.395Z,6.64
2023-01-12T23:45:44.346Z,6.71
2023-01-12T23:50:46.148Z,6.74
2023-01-12T23:55:47.964Z,6.76
